This is the latest recevied weather packets stored in our database for station/object M8FSI-13. If no packets are shown the sender has not sent any weather packets the latest 10 day(s).
| Time | Temp. | Humidity | Pressure | Rain* | Wind** | Luminosity | Snow |
|---|---|---|---|---|---|---|---|
| 1777360519 | 10.56° C | 76% | 1023.9 hPa | 0 mm | - | - | - |
| 1777359919 | 10.56° C | 78% | 1023.9 hPa | 0 mm | - | - | - |
| 1777356934 | 10.56° C | 77% | 1023.4 hPa | 0 mm | - | - | - |
| 1777356319 | 10.56° C | 77% | 1023.5 hPa | 0 mm | - | - | - |
| 1777352733 | 9.44° C | 78% | 1023.2 hPa | 0 mm | - | - | - |
| 1777351533 | 9.44° C | 78% | 1023.2 hPa | 0 mm | - | - | - |
| 1777344919 | 10° C | 80% | 1023.2 hPa | 0.25 mm | - | - | - |
| 1777343777 | 10° C | 80% | 1023.2 hPa | 0.25 mm | - | - | - |
| 1777338335 | 11.67° C | 78% | 1023.2 hPa | 0 mm | - | - | - |
| 1777337756 | 11.67° C | 79% | 1023.1 hPa | 0 mm | - | - | - |
| 1777332375 | 12.22° C | 79% | 1023.4 hPa | 0.51 mm | - | - | - |
| 1777331733 | 12.78° C | 76% | 1023.3 hPa | 0.51 mm | - | - | - |
| 1777329935 | 13.89° C | 67% | 1023 hPa | 0 mm | - | - | - |
| 1777328750 | 13.33° C | 74% | 1023 hPa | 0 mm | - | - | - |
| 1777323334 | 12.78° C | 66% | 1022.6 hPa | 0 mm | - | - | - |
| 1777322120 | 12.78° C | 68% | 1022.8 hPa | 0 mm | - | - | - |
| 1777320320 | 13.33° C | 67% | 1022.8 hPa | 0 mm | - | - | - |
| 1777319736 | 13.33° C | 66% | 1022.8 hPa | 0 mm | - | - | - |
| 1777311335 | 15.56° C | 53% | 1022.9 hPa | 0 mm | - | - | - |
| 1777310119 | 16.11° C | 49% | 1022.7 hPa | 0 mm | - | - | - |
| 1777302339 | 18.33° C | 47% | 1023.2 hPa | 0 mm | - | - | - |
| 1777300520 | 17.78° C | 50% | 1023.4 hPa | 0 mm | - | - | - |
| 1777299320 | 17.78° C | 51% | 1023.6 hPa | 0 mm | - | - | - |
| 1777297520 | 17.78° C | 50% | 1024 hPa | 0 mm | - | - | - |
| 1777295121 | 18.89° C | 47% | 1024 hPa | 0 mm | - | - | - |
* Rain latest hour (hover to see other rain measurements)
** Current wind speed in m/s (hover to see current wind gust speed)